YM Kaohsiung — MCGF6 — position and weather

sailwx.info

Track history (hours):
 
Tides and Currents Weather Stations Pressure Air Temp Water Temp Dewpoint Dewpoint Depression Visibility Wind Speed Wind Dir Waves Ship Positions

YM Kaohsiung

Last reported at 2014-Aug-20 19:31 UTC. Time now 2014-Aug-22 00:03 UTC.
Position N 30°38' E 122°03'.

Length 260 m; draft 10.7 m.

Type: Cargo ship. MMSI: 235767000.

Date/timePositionNaut miles runAvg speedWind from/ knotsBaromVisibWave heightAir tempDewpointWater temp
2014-Aug-20 19:31N 30°38' E 122°03'0 0.0
2014-Aug-20 18:18N 30°38' E 122°03'0 0.0
2014-Aug-20 17:33N 30°38' E 122°03'0 0.1
2014-Aug-20 16:31N 30°38' E 122°03'8 8.8
2014-Aug-20 15:33N 30°34' E 122°12'5 5.0
2014-Aug-20 14:33N 30°33' E 122°18'7 6.9
2014-Aug-20 13:33N 30°33' E 122°26'9 9.0
2014-Aug-20 12:33N 30°30' E 122°36'1414.2
2014-Aug-20 11:33N 30°25' E 122°51'48714.8
2014-Aug-19 02:33N 22°39' E 120°10'1111.1
2014-Aug-19 01:33N 22°33' E 120°20'0 0.3
2014-Aug-19 00:33N 22°33' E 120°20'0 0.0
2014-Aug-18 23:33N 22°33' E 120°20'0 0.0
2014-Aug-18 22:33N 22°33' E 120°20'0 0.0
2014-Aug-18 19:06N 22°33' E 120°20'0 0.0
2014-Aug-18 18:30N 22°33' E 120°20'2 2.5
2014-Aug-18 17:33N 22°33' E 120°17'2 1.7
2014-Aug-18 16:33N 22°32' E 120°15'1 0.9
2014-Aug-18 15:33N 22°32' E 120°15'3 3.0
2014-Aug-18 14:33N 22°31' E 120°11'9 9.0
2014-Aug-18 13:33N 22°28' E 120°02'1413.8
2014-Aug-18 12:33N 22°25' E 119°48'30715.3
2014-Aug-17 16:30N 22°34' E 114°16'0 0.2
2014-Aug-17 15:33N 22°34' E 114°16'0 0.0
2014-Aug-17 14:33N 22°34' E 114°16'0 0.0
2014-Aug-17 13:33N 22°34' E 114°16'0 0.0
2014-Aug-17 12:33N 22°34' E 114°16'0 0.0
2014-Aug-17 11:33N 22°34' E 114°16'0 0.0
2014-Aug-17 10:33N 22°34' E 114°16'0 0.0
2014-Aug-17 09:33N 22°34' E 114°16'0 0.0
2014-Aug-17 08:33N 22°34' E 114°16'0 0.1
2014-Aug-17 07:27N 22°34' E 114°16'0 0.1
2014-Aug-17 06:33N 22°34' E 114°16'0 0.0
2014-Aug-17 05:27N 22°34' E 114°16'0 0.0
2014-Aug-17 04:33N 22°34' E 114°16'0 0.0
2014-Aug-17 03:33N 22°34' E 114°16'0 0.4
2014-Aug-17 02:32N 22°34' E 114°16'17 4.1
2014-Aug-16 22:31N 22°19' E 114°07'0 0.1
2014-Aug-16 16:25N 22°20' E 114°08'0 0.0
2014-Aug-16 15:26N 22°20' E 114°08'169 7.3
2014-Aug-15 16:18N 22°52' E 117°08'2413.8
2014-Aug-15 14:33N 23°05' E 117°30'4113.8
2014-Aug-15 11:33N 23°31' E 118°04'1414.4
2014-Aug-15 10:34N 23°40' E 118°17'1514.7
2014-Aug-15 09:33N 23°51' E 118°28'1413.8
2014-Aug-15 08:33N 24°00' E 118°39'1414.0
2014-Aug-15 07:34N 24°09' E 118°51'1515.0
2014-Aug-15 06:34N 24°18' E 119°03'1514.8
2014-Aug-15 05:33N 24°28' E 119°16'1514.6
2014-Aug-15 04:30N 24°38' E 119°29'  
2014-Aug-10 22:13N 35°10' E 140°35'  
Track history (hours):
 
Tides and Currents Weather Stations Pressure Air Temp Water Temp Dewpoint Dewpoint Depression Visibility Wind Speed Wind Dir Waves Ship Positions

YM Kaohsiung

Last reported at 2014-Aug-20 19:31 UTC. Time now 2014-Aug-22 00:03 UTC.
Position N 30°38' E 122°03'.

Length 260 m; draft 10.7 m.

Type: Cargo ship. MMSI: 235767000.

Date/timePositionNaut miles runAvg speedWind from/ knotsBaromVisibWave heightAir tempDewpointWater temp
2014-Aug-20 19:31N 30°38' E 122°03'0 0.0
2014-Aug-20 18:18N 30°38' E 122°03'0 0.0
2014-Aug-20 17:33N 30°38' E 122°03'0 0.1
2014-Aug-20 16:31N 30°38' E 122°03'8 8.8
2014-Aug-20 15:33N 30°34' E 122°12'5 5.0
2014-Aug-20 14:33N 30°33' E 122°18'7 6.9
2014-Aug-20 13:33N 30°33' E 122°26'9 9.0
2014-Aug-20 12:33N 30°30' E 122°36'1414.2
2014-Aug-20 11:33N 30°25' E 122°51'48714.8
2014-Aug-19 02:33N 22°39' E 120°10'1111.1
2014-Aug-19 01:33N 22°33' E 120°20'0 0.3
2014-Aug-19 00:33N 22°33' E 120°20'0 0.0
2014-Aug-18 23:33N 22°33' E 120°20'0 0.0
2014-Aug-18 22:33N 22°33' E 120°20'0 0.0
2014-Aug-18 19:06N 22°33' E 120°20'0 0.0
2014-Aug-18 18:30N 22°33' E 120°20'2 2.5
2014-Aug-18 17:33N 22°33' E 120°17'2 1.7
2014-Aug-18 16:33N 22°32' E 120°15'1 0.9
2014-Aug-18 15:33N 22°32' E 120°15'3 3.0
2014-Aug-18 14:33N 22°31' E 120°11'9 9.0
2014-Aug-18 13:33N 22°28' E 120°02'1413.8
2014-Aug-18 12:33N 22°25' E 119°48'30715.3
2014-Aug-17 16:30N 22°34' E 114°16'0 0.2
2014-Aug-17 15:33N 22°34' E 114°16'0 0.0
2014-Aug-17 14:33N 22°34' E 114°16'0 0.0
2014-Aug-17 13:33N 22°34' E 114°16'0 0.0
2014-Aug-17 12:33N 22°34' E 114°16'0 0.0
2014-Aug-17 11:33N 22°34' E 114°16'0 0.0
2014-Aug-17 10:33N 22°34' E 114°16'0 0.0
2014-Aug-17 09:33N 22°34' E 114°16'0 0.0
2014-Aug-17 08:33N 22°34' E 114°16'0 0.1
2014-Aug-17 07:27N 22°34' E 114°16'0 0.1
2014-Aug-17 06:33N 22°34' E 114°16'0 0.0
2014-Aug-17 05:27N 22°34' E 114°16'0 0.0
2014-Aug-17 04:33N 22°34' E 114°16'0 0.0
2014-Aug-17 03:33N 22°34' E 114°16'0 0.4
2014-Aug-17 02:32N 22°34' E 114°16'17 4.1
2014-Aug-16 22:31N 22°19' E 114°07'0 0.1
2014-Aug-16 16:25N 22°20' E 114°08'0 0.0
2014-Aug-16 15:26N 22°20' E 114°08'169 7.3
2014-Aug-15 16:18N 22°52' E 117°08'2413.8
2014-Aug-15 14:33N 23°05' E 117°30'4113.8
2014-Aug-15 11:33N 23°31' E 118°04'1414.4
2014-Aug-15 10:34N 23°40' E 118°17'1514.7
2014-Aug-15 09:33N 23°51' E 118°28'1413.8
2014-Aug-15 08:33N 24°00' E 118°39'1414.0
2014-Aug-15 07:34N 24°09' E 118°51'1515.0
2014-Aug-15 06:34N 24°18' E 119°03'1514.8
2014-Aug-15 05:33N 24°28' E 119°16'1514.6
2014-Aug-15 04:30N 24°38' E 119°29'  
2014-Aug-10 22:13N 35°10' E 140°35'  

Dump ship's entire track history